Latest Weather Observations for Trepell

IDQ60801

Issued at 4:32 pm EST Saturday 13 April 2024 (issued every 10 minutes, with the page automatically refreshed every 10 minutes)

About weather observations | Map of weather stations | Latest weather observations for QLD | Other Formats
Station Details ID: 037036 Name: TREPELL AIRPORT Lat: -21.84 Lon: 140.89 Height: 266.2 m
Data from the previous 72 hours. | See also: Recent months at Trepell
Date/Time
EST
Temp
°C
App
Temp
°C
Dew
Point
°C
Rel
Hum
%
Delta-T
°C
Wind Press
QNH
hPa
Press
MSL
hPa
Rain since
9am
mm
Dir  Spd
km/h
Gust
km/h
Spd
kts
Gust
kts
13/04:30pm 31.3 28.9 10.1 27 12.2 S 13 17 7 9 1015.0 1013.6 0.0
13/04:00pm 31.6 29.7 9.2 25 12.7 WSW 9 13 5 7 1015.0 1013.6 0.0
13/03:30pm 31.4 28.7 9.0 25 12.7 S 13 17 7 9 1015.0 1013.6 0.0
13/03:00pm 31.3 29.1 9.5 26 12.4 SE 11 19 6 10 1015.4 1014.0 0.0
13/02:30pm 32.0 30.3 11.2 28 12.2 ENE 11 19 6 10 1015.5 1014.1 0.0
13/02:00pm 31.1 29.0 9.9 27 12.2 NNE 11 17 6 9 1015.8 1014.4 0.0
13/01:30pm 30.8 29.0 9.6 27 12.1 WNW 9 15 5 8 1016.3 1014.8 0.0
13/01:00pm 31.7 29.6 11.0 28 12.1 NE 13 22 7 12 1016.6 1015.1 0.0
13/12:30pm 30.4 28.3 9.8 28 11.8 E 11 19 6 10 1017.1 1015.6 0.0
13/12:00pm 29.6 27.2 10.2 30 11.1 ESE 13 19 7 10 1017.6 1016.1 0.0
13/11:30am 29.8 27.7 9.9 29 11.3 ENE 11 20 6 11 1018.2 1016.8 0.0
13/11:00am 28.5 25.9 9.2 30 10.8 ESE 13 19 7 10 1018.4 1017.0 0.0
13/10:30am 27.0 24.3 8.9 32 10.0 ENE 13 20 7 11 1018.6 1017.2 0.0
13/10:00am 24.2 22.3 9.0 38 8.3 SE 9 15 5 8 1018.6 1017.2 0.0
13/09:30am 22.9 20.4 8.2 39 7.9 ESE 11 17 6 9 1018.5 1017.1 0.0
13/09:00am 21.2 18.9 7.4 41 7.2 S 9 11 5 6 1018.2 1016.8 0.0
13/08:30am 18.6 16.4 6.4 45 6.1 SW 7 9 4 5 1017.9 1016.5 0.0
13/08:00am 16.6 14.6 7.0 53 4.8 W 7 9 4 5 1017.6 1016.1 0.0
13/07:30am 13.4 10.9 6.7 64 3.3 W 9 9 5 5 1017.4 1015.9 0.0
13/07:00am 11.7 8.7 5.8 67 2.8 W 11 11 6 6 1017.1 1015.6 0.0
13/06:30am 11.8 8.7 5.4 65 3.0 W 11 13 6 7 1017.0 1015.5 0.0
13/06:00am 12.0 9.0 6.1 67 2.8 W 11 13 6 7 1016.7 1015.2 0.0
13/05:30am 12.7 10.0 5.4 61 3.4 W 9 11 5 6 1016.5 1015.0 0.0
13/05:00am 12.0 9.5 6.5 69 2.6 W 9 11 5 6 1016.0 1014.5 0.0
13/04:30am 12.4 10.8 6.2 66 3.0 W 4 7 2 4 1016.1 1014.6 0.0
13/04:00am 13.6 10.8 5.0 56 4.1 W 9 9 5 5 1016.2 1014.7 0.0
13/03:30am 13.0 10.6 5.4 60 3.6 W 7 9 4 5 1016.4 1014.9 0.0
13/03:00am 13.3 10.1 5.2 58 3.8 WSW 11 13 6 7 1016.7 1015.2 0.0
13/02:30am 13.9 10.7 5.0 55 4.2 WSW 11 13 6 7 1016.9 1015.4 0.0
13/02:00am 14.2 10.6 4.8 53 4.4 WSW 13 15 7 8 1017.0 1015.5 0.0
13/01:30am 14.3 10.7 5.1 54 4.4 WSW 13 13 7 7 1017.3 1015.8 0.0
13/01:00am 14.3 11.2 5.4 55 4.2 WSW 11 11 6 6 1017.3 1015.8 0.0
13/12:30am 14.7 11.5 5.2 53 4.5 SSW 11 13 6 7 1017.3 1015.8 0.0
13/12:00am 15.5 12.8 5.4 51 4.9 SE 9 11 5 6 1017.5 1016.0 0.0
 
Date/Time
EST
Temp
°C
App
Temp
°C
Dew
Point
°C
Rel
Hum
%
Delta-T
°C
Wind Press
QNH
hPa
Press
MSL
hPa
Rain since
9am
mm
Dir  Spd
km/h
Gust
km/h
Spd
kts
Gust
kts
12/11:30pm 16.9 13.9 3.9 42 6.1 S 9 11 5 6 1017.6 1016.1 0.0
12/11:00pm 17.2 14.6 4.2 42 6.2 SSE 7 9 4 5 1017.6 1016.1 0.0
12/10:30pm 16.7 14.2 5.0 46 5.6 SE 7 9 4 5 1017.5 1016.0 0.0
12/10:00pm 16.8 14.1 5.7 48 5.4 SSE 9 11 5 6 1017.5 1016.0 0.0
12/09:30pm 17.6 14.4 5.2 44 6.1 S 11 13 6 7 1017.4 1015.9 0.0
12/09:00pm 18.0 14.9 5.6 44 6.1 SSW 11 13 6 7 1017.3 1015.8 0.0
12/08:30pm 20.2 16.9 4.3 35 7.8 ESE 11 13 6 7 1017.0 1015.5 0.0
12/08:00pm 20.6 17.0 5.0 36 7.7 SE 13 15 7 8 1016.7 1015.2 0.0
12/07:30pm 21.3 17.7 4.8 34 8.2 SSE 13 15 7 8 1016.3 1014.8 0.0
12/07:00pm 21.2 17.7 7.4 41 7.2 SSE 15 17 8 9 1016.1 1014.6 0.0
12/06:30pm 22.3 19.0 8.1 40 7.6 SSE 15 17 8 9 1015.7 1014.3 0.0
12/06:00pm 25.6 22.2 4.1 25 10.8 SSE 11 15 6 8 1015.6 1014.2 0.0
12/05:30pm 27.5 22.8 3.2 21 12.2 S 17 22 9 12 1015.3 1013.9 0.0
12/05:00pm 28.5 24.7 4.1 21 12.5 S 13 24 7 13 1015.0 1013.6 0.0
12/04:30pm 28.7 24.2 4.2 21 12.6 SSE 17 24 9 13 1014.8 1013.4 0.0
12/04:00pm 29.0 24.4 3.8 20 12.9 SSE 17 22 9 12 1014.8 1013.4 0.0
12/03:30pm 29.4 25.0 4.8 21 12.9 S 17 26 9 14 1014.9 1013.5 0.0
12/03:00pm 29.3 24.6 3.3 19 13.2 SE 17 24 9 13 1015.0 1013.6 0.0
12/02:30pm 29.1 24.9 3.9 20 13.0 SE 15 24 8 13 1015.2 1013.8 0.0
12/02:00pm 29.0 25.0 5.1 22 12.5 ESE 15 22 8 12 1015.5 1014.1 0.0
12/01:30pm 28.7 24.8 5.5 23 12.2 SE 15 24 8 13 1016.0 1014.5 0.0
12/01:00pm 27.6 23.4 5.8 25 11.5 SSE 17 22 9 12 1016.5 1015.0 0.0
12/12:30pm 27.9 23.8 7.7 28 11.0 SE 19 24 10 13 1017.1 1015.6 0.0
12/12:00pm 27.5 23.5 6.8 27 11.1 SE 17 24 9 13 1017.6 1016.1 0.0
12/11:30am 26.1 21.6 6.2 28 10.5 ESE 19 30 10 16 1018.3 1016.9 0.0
12/11:00am 26.3 22.2 7.8 31 10.0 ESE 19 26 10 14 1018.6 1017.2 0.0
12/10:30am 25.2 20.0 7.3 32 9.5 ESE 24 30 13 16 1018.9 1017.5 0.0
12/10:00am 23.9 20.3 8.3 37 8.4 ESE 17 26 9 14 1018.9 1017.5 0.0
12/09:30am 22.4 18.6 7.4 38 7.9 ESE 17 22 9 12 1018.8 1017.4 0.0
12/09:00am 19.8 16.6 6.9 43 6.6 SE 13 17 7 9 1018.6 1017.2 0.0
12/08:30am 17.5 14.9 6.1 47 5.7 SSE 9 13 5 7 1018.3 1016.9 0.0
12/08:00am 14.4 12.2 6.3 58 3.9 S 7 9 4 5 1018.1 1016.7 0.0
12/07:30am 11.9 9.3 6.0 67 2.8 S 9 11 5 6 1017.6 1016.1 0.0
12/07:00am 9.8 7.0 5.0 72 2.2 S 9 11 5 6 1017.2 1015.7 0.0
12/06:30am 9.7 6.8 4.9 72 2.2 S 9 13 5 7 1016.9 1015.4 0.0
12/06:00am 10.8 8.4 4.5 65 2.9 SE 6 7 3 4 1016.6 1015.1 0.0
12/05:30am 10.3 7.5 5.3 71 2.3 SSE 9 11 5 6 1016.6 1015.1 0.0
12/05:00am 11.0 9.1 4.7 65 2.9 SSW 4 7 2 4 1016.4 1014.9 0.0
12/04:30am 10.8 7.1 4.7 66 2.8 SSW 13 15 7 8 1016.3 1014.8 0.0
12/04:00am 11.0 7.4 4.9 66 2.8 WSW 13 15 7 8 1016.4 1014.9 0.0
12/03:30am 11.1 7.5 5.0 66 2.8 SW 13 15 7 8 1016.5 1015.0 0.0
12/03:00am 11.1 7.9 5.0 66 2.8 SW 11 13 6 7 1016.6 1015.1 0.0
12/02:30am 11.5 7.9 4.9 64 3.1 SW 13 15 7 8 1016.8 1015.3 0.0
12/02:00am 11.8 8.2 5.0 63 3.2 WSW 13 13 7 7 1017.2 1015.7 0.0
12/01:30am 12.5 9.3 5.0 60 3.5 WSW 11 13 6 7 1017.4 1015.9 0.0
12/01:00am 13.6 10.3 4.5 54 4.2 SW 11 13 6 7 1017.5 1016.0 0.0
12/12:30am 14.0 11.1 4.6 53 4.4 SW 9 11 5 6 1017.7 1016.2 0.0
12/12:00am 14.6 11.3 4.3 50 4.8 S 11 13 6 7 1017.7 1016.2 0.0
 
Date/Time
EST
Temp
°C
App
Temp
°C
Dew
Point
°C
Rel
Hum
%
Delta-T
°C
Wind Press
QNH
hPa
Press
MSL
hPa
Rain since
9am
mm
Dir  Spd
km/h
Gust
km/h
Spd
kts
Gust
kts
11/11:30pm 15.5 12.2 4.6 48 5.2 SSW 11 11 6 6 1017.7 1016.2 0.0
11/11:00pm 15.9 12.9 4.3 46 5.5 SSW 9 11 5 6 1017.8 1016.3 0.0
11/10:30pm 16.0 13.2 5.0 48 5.3 SSW 9 11 5 6 1017.9 1016.5 0.0
11/10:00pm 15.7 13.0 5.6 51 4.9 SSW 9 11 5 6 1017.9 1016.5 0.0
11/09:30pm 18.7 15.7 4.1 38 7.0 SE 9 11 5 6 1018.0 1016.6 0.0
11/09:00pm 18.6 15.1 5.5 42 6.5 ESE 13 15 7 8 1018.0 1016.6 0.0
11/08:30pm 19.3 15.6 4.6 38 7.2 E 13 15 7 8 1017.7 1016.2 0.0
11/08:00pm 19.7 16.4 6.4 42 6.7 SE 13 17 7 9 1017.4 1015.9 0.0
11/07:30pm 19.8 16.3 7.2 44 6.5 SE 15 15 8 8 1017.2 1015.7 0.0
11/07:00pm 20.2 16.9 6.2 40 7.1 SE 13 17 7 9 1017.0 1015.5 0.0
11/06:30pm 22.5 19.2 4.5 31 9.0 SSE 11 15 6 8 1016.9 1015.4 0.0
11/06:00pm 25.2 20.5 3.2 24 10.9 SSE 17 22 9 12 1016.7 1015.2 0.0
11/05:30pm 26.5 21.9 3.7 23 11.5 SSE 17 28 9 15 1016.4 1014.9 0.0
11/05:00pm 27.3 22.3 3.7 22 11.9 SSE 19 24 10 13 1016.2 1014.7 0.0
11/04:30pm 27.6 22.1 4.0 22 12.0 SE 22 30 12 16 1016.0 1014.5 0.0
11/04:00pm 27.8 22.9 4.2 22 12.1 SE 19 26 10 14 1016.0 1014.5 0.0
11/03:30pm 28.1 23.7 5.0 23 12.0 SSE 17 28 9 15 1015.7 1014.3 0.0
11/03:00pm 28.3 23.5 5.8 24 11.9 SE 20 28 11 15 1016.0 1014.5 0.0
11/02:30pm 28.0 23.5 6.2 25 11.6 SE 19 28 10 15 1016.1 1014.6 0.0
11/02:00pm 27.5 22.8 5.1 24 11.6 SE 19 30 10 16 1016.5 1015.0 0.0
11/01:30pm 27.1 22.5 5.4 25 11.3 SE 19 28 10 15 1017.0 1015.5 0.0
11/01:00pm 26.1 21.1 4.6 25 11.0 SSE 20 28 11 15 1017.4 1015.9 0.0
11/12:30pm 26.1 21.4 5.1 26 10.8 SE 19 30 10 16 1017.7 1016.2 0.0
11/12:00pm 25.1 20.1 4.8 27 10.3 SE 20 28 11 15 1018.4 1017.0 0.0
11/11:30am 24.6 19.5 5.9 30 9.7 SE 22 32 12 17 1018.8 1017.4 0.0
11/11:00am 24.2 19.4 5.5 30 9.6 SE 20 28 11 15 1019.1 1017.7 0.0
11/10:30am 23.3 18.2 6.1 33 8.9 SE 22 32 12 17 1019.4 1018.0 0.0
11/10:00am 22.5 17.0 5.9 34 8.5 ESE 24 33 13 18 1019.0 1017.6 0.0
11/09:30am 21.4 16.7 6.1 37 7.8 ESE 20 28 11 15 1018.9 1017.5 0.0
11/09:00am 19.6 14.7 4.9 38 7.2 SE 20 28 11 15 1018.7 1017.3 0.0
11/08:30am 17.3 13.8 5.3 45 5.9 SSE 13 19 7 10 1018.5 1017.1 0.0
11/08:00am 14.1 10.6 5.5 56 4.1 SSW 13 17 7 9 1018.4 1017.0 0.0
11/07:30am 10.9 7.9 6.1 72 2.3 SSW 11 13 6 7 1018.2 1016.8 0.0
11/07:00am 9.4 7.1 4.8 73 2.1 SW 6 9 3 5 1018.1 1016.7 0.0
11/06:30am 8.9 5.7 4.9 76 1.8 SSW 11 13 6 7 1017.7 1016.2 0.0
11/06:00am 10.0 7.1 4.8 70 2.4 SSW 9 11 5 6 1017.5 1016.0 0.0
11/05:30am 10.9 8.3 4.4 64 3.0 SSE 7 9 4 5 1017.1 1015.6 0.0
11/05:00am 11.3 8.8 4.5 63 3.1 SSW 7 9 4 5 1017.0 1015.5 0.0
11/04:30am 11.0 7.8 5.1 67 2.7 S 11 11 6 6 1017.0 1015.5 0.0
11/04:00am 11.0 7.9 5.5 69 2.6 S 11 13 6 7 1017.0 1015.5 0.0
11/03:30am 10.5 7.5 6.1 74 2.1 SSE 11 13 6 7 1017.1 1015.6 0.0
11/03:00am 11.7 9.7 6.2 69 2.6 SW 6 7 3 4 1017.2 1015.7 0.0
11/02:30am 10.7 8.2 6.6 76 2.0 S 9 9 5 5 1017.1 1015.6 0.0
11/02:00am 11.1 9.0 6.6 74 2.2 SSW 7 9 4 5 1017.5 1016.0 0.0
11/01:30am 12.8 10.5 5.9 63 3.3 S 7 9 4 5 1017.6 1016.1 0.0
11/01:00am 13.5 11.5 6.1 61 3.6 SSW 6 7 3 4 1017.7 1016.2 0.0
11/12:30am 13.8 10.8 6.2 60 3.7 S 11 11 6 6 1017.7 1016.2 0.0
11/12:00am 14.3 11.3 6.2 58 3.9 S 11 11 6 6 1017.8 1016.3 0.0
 
Date/Time
EST
Temp
°C
App
Temp
°C
Dew
Point
°C
Rel
Hum
%
Delta-T
°C
Wind Press
QNH
hPa
Press
MSL
hPa
Rain since
9am
mm
Dir  Spd
km/h
Gust
km/h
Spd
kts
Gust
kts
10/11:30pm 14.3 11.4 6.6 60 3.8 S 11 13 6 7 1018.0 1016.6 0.0
10/11:00pm 14.9 11.7 6.7 58 4.0 SSW 13 17 7 9 1018.0 1016.6 0.0
10/10:30pm 14.8 12.4 7.1 60 3.8 S 9 11 5 6 1018.1 1016.7 0.0
10/10:00pm 15.5 12.8 7.5 59 4.0 SSW 11 11 6 6 1018.0 1016.6 0.0
10/09:30pm 16.7 14.3 7.1 53 4.8 S 9 11 5 6 1017.8 1016.3 0.0
10/09:00pm 17.9 15.5 7.0 49 5.5 SE 9 13 5 7 1017.6 1016.1 0.0
10/08:30pm 18.7 16.0 7.2 47 5.9 SE 11 13 6 7 1017.4 1015.9 0.0
10/08:00pm 19.1 16.4 7.5 47 6.0 SE 11 13 6 7 1016.8 1015.3 0.0
10/07:30pm 19.3 16.7 7.7 47 6.0 SE 11 13 6 7 1016.5 1015.0 0.0
10/07:00pm 20.8 18.1 7.4 42 7.0 SSE 11 13 6 7 1016.1 1014.6 0.0
10/06:30pm 22.9 19.6 6.6 35 8.5 SSE 13 17 7 9 1015.7 1014.3 0.0
10/06:00pm 24.8 21.3 7.4 33 9.3 SSE 15 17 8 9 1015.7 1014.3 0.0
10/05:30pm 26.5 22.1 6.5 28 10.6 SSE 19 24 10 13 1015.5 1014.1 0.0
10/05:00pm 27.3 23.3 6.7 27 11.0 SE 17 26 9 14 1015.3 1013.9 0.0

Other formats

Comma delimited format used in spreadsheet applications
http://www.bom.gov.au/fwo/IDQ60801/IDQ60801.94338.axf

JavaScript Object Notation format (JSON) in row-major order
http://www.bom.gov.au/fwo/IDQ60801/IDQ60801.94338.json

Data quality

Most of these data are generated automatically and are frequently updated. Quality checks on data are not normally performed. It is possible for incorrect values to appear. Refer to information at About Latest Weather Observations and please check the disclaimer before using these data.